Time;durP1;ratioP1;P1;durP2;ratioP2;P2;SDS_P1;SDS_P2;PMS_P1;PMS_P2;Temp;Humidity;BMP_temperature;BMP_pressure;BME280_temperature;BME280_humidity;BME280_pressure;Samples;Min_cycle;Max_cycle;Signal;HPM_P1;HPM_P2
2022/01/26 00:00:08;;;;;;;50.22;20.55;;;4.50;99.90;;;;;;5094230;28;20051;-72
2022/01/26 00:08:04;;;;;;;50.78;20.52;;;4.10;99.90;;;;;;5094215;28;20080;-73
2022/01/26 00:10:30;;;;;;;48.80;20.55;;;4.20;99.90;;;;;;5094899;28;20051;-73
2022/01/26 00:12:56;;;;;;;51.30;21.52;;;4.30;99.90;;;;;;5093562;28;20395;-73
2022/01/26 00:15:21;;;;;;;49.15;20.58;;;4.40;99.90;;;;;;5095001;28;20035;-73
2022/01/26 00:17:50;;;;;;;49.63;21.25;;;4.40;99.90;;;;;;5093880;28;20118;-73
2022/01/26 00:20:22;;;;;;;50.97;20.75;;;4.40;99.90;;;;;;5077177;28;20043;-73
2022/01/26 00:38:38;;;;;;;50.47;21.98;;;4.10;99.90;;;;;;5093569;28;20040;-73
2022/01/26 00:41:12;;;;;;;51.83;20.92;;;4.20;99.90;;;;;;5093933;28;20126;-73
2022/01/26 00:43:43;;;;;;;51.63;21.65;;;4.20;99.90;;;;;;5076916;28;20400;-73
2022/01/26 00:46:08;;;;;;;51.38;20.80;;;4.30;99.90;;;;;;5094430;28;20044;-73
2022/01/26 00:48:37;;;;;;;47.85;19.83;;;4.30;99.90;;;;;;5093141;28;20044;-72
2022/01/26 00:51:05;;;;;;;51.30;21.63;;;4.30;99.90;;;;;;5076657;28;20097;-72
2022/01/26 00:53:38;;;;;;;46.95;20.65;;;4.30;99.90;;;;;;5076379;28;20114;-72
2022/01/26 00:56:05;;;;;;;52.47;20.33;;;4.20;99.90;;;;;;5094277;28;20093;-72
2022/01/26 00:58:31;;;;;;;47.58;20.02;;;4.20;99.90;;;;;;5093040;28;20046;-73
2022/01/26 01:00:59;;;;;;;52.97;23.90;;;4.10;99.90;;;;;;5077522;28;20054;-73
2022/01/26 01:03:26;;;;;;;52.05;23.10;;;4.00;99.90;;;;;;5092973;28;20067;-73
2022/01/26 01:08:24;;;;;;;57.78;22.30;;;4.00;99.90;;;;;;5092943;28;20040;-72
2022/01/26 01:10:52;;;;;;;58.85;22.73;;;3.80;99.90;;;;;;5075887;28;20040;-73
2022/01/26 01:13:22;;;;;;;52.17;22.48;;;3.60;99.90;;;;;;5076241;28;20032;-72
2022/01/26 01:15:50;;;;;;;51.75;22.15;;;3.90;99.90;;;;;;5093524;28;20044;-72
2022/01/26 01:18:22;;;;;;;55.00;22.92;;;3.80;99.90;;;;;;5093584;28;20032;-72
2022/01/26 01:21:31;;;;;;;;;;;3.70;99.90;;;;;;5094187;28;20070;-72
2022/01/26 01:26:46;;;;;;;47.40;18.48;;;3.80;99.90;;;;;;5090786;28;20036;-72
2022/01/26 01:31:53;;;;;;;45.95;19.30;;;4.20;99.90;;;;;;5091324;28;20109;-73
2022/01/26 01:34:22;;;;;;;51.78;21.20;;;4.10;99.90;;;;;;5076448;28;20480;-73
2022/01/26 01:36:50;;;;;;;50.42;20.70;;;4.10;99.90;;;;;;5076529;28;20032;-72
2022/01/26 01:39:18;;;;;;;47.17;19.20;;;4.00;99.90;;;;;;5093652;28;20040;-72
2022/01/26 01:41:46;;;;;;;45.15;19.38;;;4.00;99.90;;;;;;5075652;28;20044;-72
2022/01/26 01:44:12;;;;;;;36.70;15.57;;;4.00;99.90;;;;;;5074801;28;20035;-72
2022/01/26 01:46:38;;;;;;;44.50;17.90;;;4.10;99.90;;;;;;5076351;28;20086;-73
2022/01/26 01:49:05;;;;;;;47.92;18.92;;;4.10;99.90;;;;;;5075443;28;20398;-72
2022/01/26 01:51:35;;;;;;;49.85;20.33;;;4.10;99.90;;;;;;5076157;28;20044;-72
2022/01/26 01:54:02;;;;;;;50.50;21.50;;;3.90;99.90;;;;;;5092065;28;20047;-72
2022/01/26 01:56:27;;;;;;;54.13;22.10;;;3.80;99.90;;;;;;5076323;28;20119;-72
2022/01/26 01:58:57;;;;;;;56.38;23.65;;;3.60;99.90;;;;;;5073042;28;20119;-72
2022/01/26 02:01:22;;;;;;;56.63;22.33;;;3.70;99.90;;;;;;5092764;28;20036;-72
2022/01/26 02:03:48;;;;;;;44.72;17.02;;;3.70;99.90;;;;;;5074447;28;20188;-72
2022/01/26 02:06:14;;;;;;;59.75;23.52;;;3.90;99.90;;;;;;5092655;28;20563;-72
2022/01/26 02:08:42;;;;;;;58.00;23.58;;;3.80;99.90;;;;;;5091713;28;20040;-72
2022/01/26 02:11:11;;;;;;;60.63;24.33;;;3.70;99.90;;;;;;5075709;28;20043;-73
2022/01/26 02:13:48;;;;;;;64.82;25.58;;;3.50;99.90;;;;;;5074103;28;20387;-73
2022/01/26 02:16:42;;;;;;;51.72;20.98;;;3.40;99.90;;;;;;5079375;28;20040;-72
2022/01/26 02:49:54;;;;;;;48.55;19.75;;;3.90;99.90;;;;;;5053740;28;20450;-72
2022/01/26 02:52:18;;;;;;;50.40;19.63;;;3.90;99.90;;;;;;5088988;28;20492;-72
2022/01/26 03:02:39;;;;;;;50.60;21.67;;;3.80;99.90;;;;;;5082835;28;20400;-72
2022/01/26 03:05:08;;;;;;;51.65;21.73;;;3.70;99.90;;;;;;5081675;28;20084;-72
2022/01/26 03:10:09;;;;;;;43.78;17.73;;;3.70;99.90;;;;;;5084442;28;20044;-72
2022/01/26 03:12:46;;;;;;;46.03;18.00;;;3.80;99.90;;;;;;5080906;28;20040;-72
2022/01/26 03:15:18;;;;;;;45.67;18.13;;;3.70;99.90;;;;;;5063991;28;20035;-72
2022/01/26 03:20:29;;;;;;;51.67;20.92;;;3.70;99.90;;;;;;5091535;28;20040;-73
2022/01/26 03:28:37;;;;;;;39.72;15.75;;;3.70;99.90;;;;;;5093530;28;20079;-72
2022/01/26 03:33:54;;;;;;;47.83;17.52;;;3.50;99.90;;;;;;5092706;28;20093;-72
2022/01/26 03:36:20;;;;;;;40.15;15.55;;;3.70;99.90;;;;;;5094164;28;20373;-73
2022/01/26 03:38:57;;;;;;;48.92;19.48;;;3.70;99.90;;;;;;5091573;28;20050;-72
2022/01/26 03:41:37;;;;;;;47.33;18.88;;;3.80;99.90;;;;;;5089574;28;20047;-72
2022/01/26 03:44:04;;;;;;;51.58;20.05;;;3.70;99.90;;;;;;5093361;28;20055;-72
2022/01/26 03:46:30;;;;;;;50.08;20.67;;;3.60;99.90;;;;;;5094853;28;20118;-72
2022/01/26 03:48:55;;;;;;;51.42;21.35;;;3.60;99.90;;;;;;5094792;28;20052;-72
2022/01/26 03:51:21;;;;;;;55.55;21.75;;;3.60;99.90;;;;;;5093622;28;20040;-73
2022/01/26 03:53:46;;;;;;;58.42;22.65;;;3.70;99.90;;;;;;5093565;28;20128;-73
2022/01/26 03:56:12;;;;;;;48.30;19.67;;;3.50;99.90;;;;;;5093756;28;20028;-73
2022/01/26 03:58:37;;;;;;;52.53;20.67;;;3.50;99.90;;;;;;5075263;28;20035;-73
2022/01/26 04:01:03;;;;;;;57.30;21.08;;;3.50;99.90;;;;;;5093620;28;20036;-73
2022/01/26 04:03:29;;;;;;;50.55;20.75;;;3.60;99.90;;;;;;5074614;28;20044;-73
2022/01/26 04:05:54;;;;;;;53.95;21.08;;;3.60;99.90;;;;;;5077035;28;20150;-73
2022/01/26 04:08:26;;;;;;;48.85;18.98;;;3.70;99.90;;;;;;5077442;28;20040;-72
2022/01/26 04:13:20;;;;;;;52.83;18.98;;;3.70;99.90;;;;;;5094471;28;20051;-72
2022/01/26 04:15:46;;;;;;;55.10;20.40;;;3.70;99.90;;;;;;5094123;28;20040;-72
2022/01/26 04:18:16;;;;;;;48.75;19.42;;;3.80;99.90;;;;;;5095006;28;20036;-72
2022/01/26 04:20:46;;;;;;;56.20;21.30;;;3.70;99.90;;;;;;5094331;28;20048;-72
2022/01/26 04:23:21;;;;;;;51.60;20.50;;;3.70;99.90;;;;;;5093725;28;20044;-72
2022/01/26 04:25:49;;;;;;;52.28;20.25;;;3.70;99.90;;;;;;5093736;28;20118;-72
2022/01/26 04:28:21;;;;;;;51.97;21.73;;;3.80;99.90;;;;;;5094194;28;20040;-72
2022/01/26 04:30:47;;;;;;;55.95;20.27;;;3.70;99.90;;;;;;5094643;28;20044;-72
2022/01/26 04:33:12;;;;;;;51.40;20.83;;;3.70;99.90;;;;;;5057805;28;20044;-72
2022/01/26 04:35:43;;;;;;;60.53;23.80;;;3.70;99.90;;;;;;5076932;28;20066;-72
2022/01/26 04:38:18;;;;;;;51.30;21.02;;;3.70;99.90;;;;;;5093921;28;20032;-72
2022/01/26 04:40:59;;;;;;;52.33;20.35;;;3.70;99.90;;;;;;5090939;28;20040;-73
2022/01/26 04:43:28;;;;;;;49.58;20.63;;;3.70;99.90;;;;;;5076302;28;20119;-72
2022/01/26 04:45:54;;;;;;;52.13;21.98;;;3.80;99.90;;;;;;5092338;28;20097;-72
2022/01/26 04:48:20;;;;;;;52.78;21.90;;;3.70;99.90;;;;;;5076143;28;20040;-72
2022/01/26 04:50:46;;;;;;;55.38;22.35;;;3.60;99.90;;;;;;5076763;28;20051;-72
2022/01/26 04:53:12;;;;;;;50.17;20.83;;;3.60;99.90;;;;;;5076005;28;20066;-72
2022/01/26 04:55:37;;;;;;;47.72;17.98;;;3.60;99.90;;;;;;5075700;28;20063;-72
2022/01/26 04:58:03;;;;;;;59.47;22.42;;;3.60;99.90;;;;;;5075742;28;20028;-72
2022/01/26 05:00:29;;;;;;;53.50;20.27;;;3.60;99.90;;;;;;5093042;28;20101;-72
2022/01/26 05:02:54;;;;;;;45.60;19.35;;;3.60;99.90;;;;;;5093311;28;20119;-72
2022/01/26 05:05:20;;;;;;;51.92;19.65;;;3.60;99.90;;;;;;5075673;28;20031;-72
2022/01/26 05:07:45;;;;;;;55.47;20.83;;;3.60;99.90;;;;;;5076328;28;20044;-72
2022/01/26 05:10:12;;;;;;;53.55;20.38;;;3.60;99.90;;;;;;5092668;28;20040;-73
2022/01/26 05:12:39;;;;;;;44.85;18.75;;;3.70;99.90;;;;;;5076917;28;20115;-72
2022/01/26 05:15:05;;;;;;;45.97;18.80;;;3.70;99.90;;;;;;5076307;28;20032;-72
2022/01/26 05:17:30;;;;;;;49.47;20.95;;;3.70;99.90;;;;;;5077105;28;20384;-72
2022/01/26 05:19:59;;;;;;;43.47;18.50;;;3.60;99.90;;;;;;5076169;28;20047;-72
2022/01/26 05:22:25;;;;;;;51.10;21.77;;;3.70;99.90;;;;;;5093938;28;20396;-73
2022/01/26 05:24:52;;;;;;;49.30;19.40;;;3.60;99.90;;;;;;5075121;28;20032;-73
2022/01/26 05:27:18;;;;;;;47.22;16.77;;;3.50;99.90;;;;;;5076878;28;20127;-72
2022/01/26 05:29:44;;;;;;;49.63;20.30;;;3.50;99.90;;;;;;5076165;28;20119;-72
2022/01/26 05:32:09;;;;;;;48.13;19.13;;;3.60;99.90;;;;;;5093325;28;20036;-73
2022/01/26 05:34:35;;;;;;;45.58;18.67;;;3.60;99.90;;;;;;5092741;28;20039;-73
2022/01/26 05:37:00;;;;;;;47.47;19.02;;;3.60;99.90;;;;;;5091986;28;20032;-72
2022/01/26 05:39:26;;;;;;;49.05;19.42;;;3.60;99.90;;;;;;5074403;28;20396;-73
2022/01/26 05:41:51;;;;;;;47.72;18.52;;;3.50;99.90;;;;;;5091619;28;20044;-72
2022/01/26 05:44:17;;;;;;;49.33;20.15;;;3.50;99.90;;;;;;5091364;28;20040;-72
2022/01/26 05:46:47;;;;;;;46.90;16.98;;;3.60;99.90;;;;;;5091820;28;20051;-72
2022/01/26 05:49:13;;;;;;;45.65;16.55;;;3.70;99.90;;;;;;5073857;28;20078;-72
2022/01/26 05:51:39;;;;;;;40.60;14.75;;;3.60;99.90;;;;;;5075349;28;20400;-72
2022/01/26 05:54:05;;;;;;;51.63;18.77;;;3.60;99.90;;;;;;5072793;28;20071;-72
2022/01/26 05:56:31;;;;;;;45.05;16.92;;;3.60;99.90;;;;;;5091343;28;20503;-72
2022/01/26 05:58:57;;;;;;;43.80;16.63;;;3.60;99.90;;;;;;5072881;28;20032;-72
2022/01/26 06:01:23;;;;;;;41.50;16.05;;;3.60;99.90;;;;;;5092400;28;20404;-72
2022/01/26 06:03:49;;;;;;;36.53;14.43;;;3.60;99.90;;;;;;5074025;28;20039;-72
2022/01/26 06:06:17;;;;;;;40.53;15.60;;;3.60;99.90;;;;;;5075032;28;20055;-72
2022/01/26 06:08:43;;;;;;;48.72;17.17;;;3.60;99.90;;;;;;5091809;28;20055;-72
2022/01/26 06:11:09;;;;;;;39.38;14.55;;;3.50;99.90;;;;;;5074315;28;20045;-72
2022/01/26 06:13:34;;;;;;;42.72;16.52;;;3.50;99.90;;;;;;5075938;28;20432;-73
2022/01/26 06:16:01;;;;;;;45.00;18.88;;;3.50;99.90;;;;;;5092115;28;20043;-72
2022/01/26 06:18:26;;;;;;;43.45;18.08;;;3.50;99.90;;;;;;5075721;28;20043;-72
2022/01/26 06:20:52;;;;;;;42.17;16.65;;;3.50;99.90;;;;;;5091874;28;20123;-72
2022/01/26 06:23:19;;;;;;;47.10;17.95;;;3.50;99.90;;;;;;5073698;28;20089;-72
2022/01/26 06:25:45;;;;;;;43.70;16.25;;;3.40;99.90;;;;;;5074866;28;20480;-72
2022/01/26 06:28:13;;;;;;;42.53;15.38;;;3.50;99.90;;;;;;5092417;28;20047;-72
2022/01/26 06:30:39;;;;;;;45.67;16.45;;;3.30;99.90;;;;;;5073769;28;20527;-72
2022/01/26 06:33:07;;;;;;;45.42;18.73;;;3.20;99.90;;;;;;5090939;28;20032;-72
2022/01/26 06:35:34;;;;;;;43.80;17.35;;;3.30;99.90;;;;;;5075207;28;20385;-72
2022/01/26 06:38:00;;;;;;;45.95;19.08;;;3.30;99.90;;;;;;5089080;28;20032;-72
2022/01/26 06:40:26;;;;;;;40.15;14.88;;;3.20;99.90;;;;;;5090741;28;20040;-72
2022/01/26 06:43:05;;;;;;;42.00;16.67;;;3.30;99.90;;;;;;5090593;28;20036;-72
2022/01/26 06:45:34;;;;;;;47.08;16.45;;;3.40;99.90;;;;;;5074016;28;20047;-72
2022/01/26 06:50:38;;;;;;;38.65;16.23;;;3.50;99.90;;;;;;5089436;28;20054;-72
2022/01/26 06:53:04;;;;;;;30.17;12.10;;;3.50;99.90;;;;;;5074692;28;20457;-73
2022/01/26 06:55:29;;;;;;;43.25;17.55;;;3.50;99.90;;;;;;5074613;28;20071;-72
2022/01/26 06:57:55;;;;;;;40.85;15.68;;;3.50;99.90;;;;;;5091039;28;20032;-72
2022/01/26 07:00:21;;;;;;;41.17;17.23;;;3.40;99.90;;;;;;5072191;28;20400;-72
2022/01/26 07:02:47;;;;;;;44.03;17.80;;;3.50;99.90;;;;;;5087441;28;20048;-72
2022/01/26 07:05:13;;;;;;;40.67;15.32;;;3.40;99.90;;;;;;5071588;28;20028;-72
2022/01/26 07:07:40;;;;;;;42.17;17.70;;;3.40;99.90;;;;;;5089391;28;20096;-72
2022/01/26 07:10:07;;;;;;;40.80;15.80;;;3.40;99.90;;;;;;5090386;28;20040;-72
2022/01/26 07:12:33;;;;;;;44.30;19.10;;;3.50;99.90;;;;;;5090970;28;20032;-72
2022/01/26 07:21:19;;;;;;;43.28;16.30;;;3.30;99.90;;;;;;5089890;28;20055;-72
2022/01/26 07:23:18;;;;;;;41.40;15.20;;;3.40;99.90;;;;;;5091449;28;20055;-72
2022/01/26 07:25:43;;;;;;;49.28;18.00;;;3.30;99.90;;;;;;5074469;28;20035;-72
2022/01/26 07:28:09;;;;;;;42.33;15.65;;;3.50;99.90;;;;;;5089820;28;20147;-72
2022/01/26 07:30:35;;;;;;;38.88;16.08;;;3.40;99.90;;;;;;5090697;28;20089;-72
2022/01/26 07:33:05;;;;;;;39.72;15.75;;;3.40;99.90;;;;;;5074070;28;20068;-72
2022/01/26 07:35:31;;;;;;;42.33;17.33;;;3.50;99.90;;;;;;5091330;28;20161;-72
2022/01/26 07:37:58;;;;;;;36.92;15.13;;;3.50;99.90;;;;;;5072290;28;20028;-72
2022/01/26 07:40:24;;;;;;;37.83;15.30;;;3.50;99.90;;;;;;5083710;28;20385;-72
2022/01/26 07:42:50;;;;;;;47.88;18.50;;;3.50;99.90;;;;;;5090529;28;20047;-72
2022/01/26 07:45:16;;;;;;;41.50;16.70;;;3.60;99.90;;;;;;5091666;28;20126;-80
2022/01/26 07:47:43;;;;;;;47.90;17.92;;;3.50;99.90;;;;;;5072429;28;20142;-73
2022/01/26 07:50:12;;;;;;;45.90;18.27;;;3.50;99.90;;;;;;5089966;28;20060;-72
2022/01/26 07:52:41;;;;;;;48.67;20.38;;;3.40;99.90;;;;;;5090837;28;20040;-72
2022/01/26 07:55:09;;;;;;;52.40;23.15;;;3.40;99.90;;;;;;5091159;28;20083;-72
2022/01/26 07:57:35;;;;;;;45.15;18.85;;;3.50;99.90;;;;;;5073789;28;20553;-72
2022/01/26 08:00:01;;;;;;;50.08;20.23;;;3.40;99.90;;;;;;5076330;28;20036;-72
2022/01/26 08:02:27;;;;;;;44.95;17.70;;;3.50;99.90;;;;;;5086804;28;20040;-72
2022/01/26 08:04:52;;;;;;;54.78;23.27;;;3.50;99.90;;;;;;5086803;28;20032;-72
2022/01/26 08:07:18;;;;;;;58.25;22.77;;;3.30;99.90;;;;;;5094910;28;20036;-72
2022/01/26 08:09:44;;;;;;;54.20;23.23;;;3.30;99.90;;;;;;5094842;28;20043;-72
2022/01/26 08:12:17;;;;;;;49.65;21.08;;;3.50;99.90;;;;;;5076520;28;20036;-72
2022/01/26 08:14:44;;;;;;;45.95;20.58;;;3.50;99.90;;;;;;5094731;28;20036;-72
2022/01/26 08:17:10;;;;;;;58.35;22.00;;;3.50;99.90;;;;;;5076407;28;20119;-72
2022/01/26 08:19:36;;;;;;;57.70;23.17;;;3.40;99.90;;;;;;5077928;28;20036;-72
2022/01/26 08:22:03;;;;;;;54.13;22.90;;;3.40;99.90;;;;;;5093094;28;20050;-72
2022/01/26 08:24:30;;;;;;;56.13;25.08;;;3.60;99.90;;;;;;5077483;28;20040;-72
2022/01/26 08:26:58;;;;;;;63.10;27.38;;;3.60;99.90;;;;;;5077226;28;20046;-72
2022/01/26 08:29:31;;;;;;;73.05;29.50;;;3.40;99.90;;;;;;5093693;28;20040;-72
2022/01/26 08:31:57;;;;;;;66.40;28.08;;;3.30;99.90;;;;;;5076596;28;20496;-72
2022/01/26 08:34:23;;;;;;;67.38;26.55;;;3.30;99.90;;;;;;5078022;28;20040;-72
2022/01/26 08:36:48;;;;;;;71.45;29.42;;;3.30;99.90;;;;;;5081349;28;20037;-72
2022/01/26 08:39:14;;;;;;;68.97;28.17;;;3.30;99.90;;;;;;5090529;28;20507;-72
2022/01/26 08:41:42;;;;;;;66.97;29.05;;;3.40;99.90;;;;;;5093041;28;20110;-72
2022/01/26 08:44:07;;;;;;;56.58;20.52;;;3.40;99.90;;;;;;5094420;28;20043;-72
2022/01/26 08:46:33;;;;;;;62.92;26.00;;;3.50;99.90;;;;;;5076429;28;20411;-72
2022/01/26 08:48:59;;;;;;;61.60;24.83;;;3.70;99.90;;;;;;5076421;28;20094;-72
2022/01/26 08:51:24;;;;;;;59.67;26.63;;;3.80;99.90;;;;;;5093001;28;20044;-72
2022/01/26 08:53:50;;;;;;;72.90;30.60;;;3.70;99.90;;;;;;5077042;28;20032;-72
2022/01/26 08:56:16;;;;;;;69.13;29.90;;;3.80;99.90;;;;;;5075829;28;20117;-72
2022/01/26 08:58:42;;;;;;;69.68;30.15;;;3.60;99.90;;;;;;5092996;28;20089;-72
2022/01/26 09:01:08;;;;;;;74.65;31.90;;;3.50;99.90;;;;;;5092060;28;20043;-73
2022/01/26 09:03:39;;;;;;;79.55;33.10;;;3.40;99.90;;;;;;5094032;28;20404;-73
2022/01/26 09:06:07;;;;;;;73.95;32.60;;;3.40;99.90;;;;;;5075854;28;20496;-73
2022/01/26 09:08:39;;;;;;;77.00;34.60;;;3.50;99.90;;;;;;5092492;28;20036;-72
2022/01/26 09:11:05;;;;;;;79.20;32.67;;;3.60;99.90;;;;;;5092157;28;20086;-73
2022/01/26 09:13:33;;;;;;;86.68;35.90;;;3.40;99.90;;;;;;5076702;28;20086;-72
2022/01/26 09:16:02;;;;;;;78.97;35.05;;;3.40;99.90;;;;;;5075692;28;20058;-73
2022/01/26 09:18:38;;;;;;;74.10;31.90;;;3.40;99.90;;;;;;5092764;28;20051;-72
2022/01/26 09:21:05;;;;;;;75.40;32.38;;;3.50;99.90;;;;;;5073047;28;20051;-73
2022/01/26 09:23:31;;;;;;;76.50;33.88;;;3.60;99.90;;;;;;5073305;28;20055;-72
2022/01/26 09:25:56;;;;;;;76.68;32.97;;;3.60;99.90;;;;;;5074149;28;20040;-73
2022/01/26 09:28:24;;;;;;;81.65;33.45;;;3.80;99.90;;;;;;5091764;28;20055;-73
2022/01/26 09:30:50;;;;;;;71.30;30.25;;;3.60;99.90;;;;;;5076082;28;20040;-72
2022/01/26 09:33:15;;;;;;;74.18;31.08;;;3.70;99.90;;;;;;5091578;28;20466;-73
2022/01/26 09:35:41;;;;;;;67.15;28.25;;;3.90;99.90;;;;;;5076571;28;20500;-73
2022/01/26 09:38:06;;;;;;;81.13;31.88;;;4.00;99.90;;;;;;5075617;28;20047;-73
2022/01/26 09:40:33;;;;;;;74.43;31.60;;;3.90;99.90;;;;;;5076632;28;20127;-73
2022/01/26 09:42:59;;;;;;;65.65;28.55;;;4.00;99.90;;;;;;5091957;28;20048;-73
2022/01/26 09:45:25;;;;;;;65.72;29.73;;;4.00;99.90;;;;;;5092842;28;20523;-72
2022/01/26 09:47:51;;;;;;;75.50;30.45;;;4.20;99.90;;;;;;5091725;28;20036;-73
2022/01/26 09:50:16;;;;;;;71.07;29.65;;;4.10;99.90;;;;;;5075985;28;20059;-73
2022/01/26 09:52:47;;;;;;;72.60;32.40;;;4.10;99.90;;;;;;5091784;28;20032;-73
2022/01/26 09:55:14;;;;;;;68.45;31.05;;;4.10;99.90;;;;;;5091366;28;20104;-73
2022/01/26 09:57:41;;;;;;;71.18;31.10;;;4.20;99.90;;;;;;5092087;28;20058;-72
2022/01/26 10:00:08;;;;;;;69.43;30.92;;;4.20;99.90;;;;;;5075597;28;20040;-73
2022/01/26 10:02:35;;;;;;;71.03;32.40;;;4.10;99.90;;;;;;5091970;28;20036;-73
2022/01/26 10:05:10;;;;;;;69.25;30.33;;;4.10;99.90;;;;;;5108245;28;20480;-73
2022/01/26 10:07:55;;;;;;;57.33;24.77;;;4.10;99.90;;;;;;5091704;28;20545;-73
2022/01/26 10:15:26;;;;;;;66.50;28.17;;;4.20;99.90;;;;;;5075725;28;20044;-73
2022/01/26 10:18:36;;;;;;;70.32;29.85;;;4.00;99.90;;;;;;5091550;28;20051;-73
2022/01/26 10:21:04;;;;;;;66.07;28.05;;;4.20;99.90;;;;;;5092477;28;20532;-73
2022/01/26 10:23:36;;;;;;;68.22;30.40;;;4.20;99.90;;;;;;5073627;28;20044;-73
2022/01/26 10:26:09;;;;;;;77.20;33.88;;;4.20;99.90;;;;;;5074673;28;20044;-73
2022/01/26 10:28:57;;;;;;;75.40;33.80;;;4.20;99.90;;;;;;5091870;28;20052;-73
2022/01/26 10:31:28;;;;;;;74.65;31.15;;;4.30;99.90;;;;;;5090063;28;20078;-73
2022/01/26 10:34:08;;;;;;;74.32;33.38;;;4.40;99.90;;;;;;5091484;28;20036;-73
2022/01/26 10:36:57;;;;;;;81.78;33.55;;;4.20;99.90;;;;;;5091030;28;20085;-73
2022/01/26 10:39:36;;;;;;;80.60;34.42;;;4.10;99.90;;;;;;5092574;28;20051;-72
2022/01/26 10:42:10;;;;;;;78.80;33.83;;;4.10;99.90;;;;;;5089214;28;20043;-73
2022/01/26 10:44:49;;;;;;;82.55;35.17;;;4.10;99.90;;;;;;5092221;28;20044;-73
2022/01/26 10:47:26;;;;;;;78.85;32.53;;;4.10;99.90;;;;;;5091964;28;20447;-73
2022/01/26 10:49:56;;;;;;;76.03;33.20;;;4.10;99.90;;;;;;5074802;28;20051;-73
2022/01/26 10:52:36;;;;;;;78.13;32.95;;;4.10;99.90;;;;;;5091370;28;20066;-73
2022/01/26 10:55:04;;;;;;;75.13;31.63;;;4.10;99.90;;;;;;5073997;28;20043;-71
2022/01/26 10:57:29;;;;;;;68.22;28.88;;;4.10;99.90;;;;;;5091342;28;20036;-74
2022/01/26 10:59:55;;;;;;;71.70;31.73;;;4.30;99.90;;;;;;5092104;28;20042;-73
2022/01/26 11:02:25;;;;;;;69.60;32.60;;;4.40;99.90;;;;;;5073121;28;20484;-74
2022/01/26 11:04:51;;;;;;;70.82;31.23;;;4.30;99.90;;;;;;5088054;28;20055;-74
2022/01/26 11:07:17;;;;;;;69.43;30.70;;;4.20;99.90;;;;;;5091960;28;20630;-73
2022/01/26 11:09:46;;;;;;;68.40;31.77;;;4.20;99.90;;;;;;5074178;28;20059;-74
2022/01/26 11:12:13;;;;;;;67.97;29.33;;;4.20;99.90;;;;;;5091799;28;20040;-74
2022/01/26 11:14:45;;;;;;;72.85;31.02;;;4.20;99.90;;;;;;5072519;28;20124;-73
2022/01/26 11:17:27;;;;;;;72.93;32.55;;;4.20;99.90;;;;;;5073319;28;20067;-74
2022/01/26 11:19:57;;;;;;;65.55;28.63;;;4.30;99.90;;;;;;5090180;28;20032;-74
2022/01/26 11:22:27;;;;;;;69.25;29.02;;;4.30;99.90;;;;;;5088174;28;20047;-73
2022/01/26 11:24:55;;;;;;;62.67;28.40;;;4.20;99.90;;;;;;5090843;28;20182;-74
2022/01/26 11:27:21;;;;;;;65.93;31.27;;;4.30;99.90;;;;;;5074972;28;20117;-73
2022/01/26 11:29:52;;;;;;;71.40;31.00;;;4.30;99.90;;;;;;5090418;28;20040;-74
2022/01/26 11:32:35;;;;;;;69.18;27.70;;;4.40;99.90;;;;;;5071801;28;20142;-74
2022/01/26 11:35:06;;;;;;;65.32;29.30;;;4.40;99.90;;;;;;5078253;28;20035;-74
2022/01/26 11:37:48;;;;;;;60.45;25.52;;;4.50;99.90;;;;;;5093273;28;20045;-74
2022/01/26 11:46:09;;;;;;;62.35;26.10;;;4.70;99.90;;;;;;5091807;28;20480;-74
2022/01/26 11:48:35;;;;;;;60.08;27.42;;;4.60;99.90;;;;;;5093344;28;20044;-74
2022/01/26 11:51:02;;;;;;;55.30;25.48;;;4.70;99.90;;;;;;5076409;28;20040;-74
2022/01/26 11:53:29;;;;;;;68.13;29.33;;;4.80;99.90;;;;;;5078445;28;20076;-74
2022/01/26 11:56:03;;;;;;;62.63;24.33;;;4.70;99.90;;;;;;5068819;28;20043;-74
2022/01/26 11:58:36;;;;;;;61.72;25.50;;;4.80;99.90;;;;;;5069904;28;20520;-74
2022/01/26 12:01:13;;;;;;;58.80;26.50;;;4.90;99.90;;;;;;5064809;28;20055;-74
2022/01/26 12:03:55;;;;;;;67.00;27.55;;;4.80;99.90;;;;;;5094232;28;20076;-74
2022/01/26 12:06:35;;;;;;;45.20;18.50;;;4.80;99.90;;;;;;5089179;28;20044;-74
2022/01/26 12:09:03;;;;;;;59.28;23.70;;;4.90;99.90;;;;;;5092889;28;20094;-74
2022/01/26 12:11:29;;;;;;;53.70;22.05;;;4.70;99.90;;;;;;5077130;28;20040;-74
2022/01/26 12:14:04;;;;;;;41.60;15.63;;;4.90;99.90;;;;;;5094928;28;20051;-74
2022/01/26 12:16:37;;;;;;;57.88;23.15;;;4.90;99.90;;;;;;5092447;28;20476;-74
2022/01/26 12:35:43;;;;;;;50.30;19.83;;;4.70;99.90;;;;;;5093263;28;20059;-74
2022/01/26 12:43:34;;;;;;;51.58;22.05;;;4.90;99.90;;;;;;5093343;28;20048;-74
2022/01/26 12:46:00;;;;;;;50.90;23.23;;;4.90;99.90;;;;;;5075215;28;20068;-74
2022/01/26 12:48:27;;;;;;;51.47;23.65;;;4.80;99.90;;;;;;5090000;28;20075;-74
2022/01/26 12:50:54;;;;;;;48.53;20.00;;;4.90;99.90;;;;;;5070302;28;20070;-74
2022/01/26 12:53:27;;;;;;;46.42;19.63;;;4.90;99.90;;;;;;5075205;28;20040;-74
2022/01/26 12:55:58;;;;;;;49.08;21.88;;;5.00;99.90;;;;;;5074032;28;20090;-74
2022/01/26 12:58:29;;;;;;;53.53;22.85;;;5.00;99.90;;;;;;5075484;28;20037;-74
2022/01/26 13:01:04;;;;;;;51.67;20.38;;;5.00;99.90;;;;;;5092992;28;20048;-74
2022/01/26 13:03:36;;;;;;;55.80;23.98;;;5.00;99.90;;;;;;5075770;28;20112;-74
2022/01/26 13:06:23;;;;;;;49.73;21.20;;;4.80;99.90;;;;;;5093802;28;20040;-74
2022/01/26 13:08:51;;;;;;;55.88;24.02;;;4.90;99.90;;;;;;5092784;28;20078;-74
2022/01/26 13:11:26;;;;;;;46.90;17.70;;;4.80;99.90;;;;;;5090142;28;20048;-74
2022/01/26 13:14:19;;;;;;;48.58;20.55;;;4.90;99.90;;;;;;5076786;28;20032;-74
2022/01/26 13:17:12;;;;;;;53.20;23.58;;;4.80;99.90;;;;;;5076534;28;20520;-74
2022/01/26 13:33:54;;;;;;;38.25;13.60;;;4.90;99.90;;;;;;5093759;28;20090;-74
2022/01/26 13:36:36;;;;;;;52.42;20.88;;;5.10;99.90;;;;;;5093216;28;20072;-74
2022/01/26 13:39:18;;;;;;;50.90;22.73;;;5.10;99.90;;;;;;5076186;28;20038;-74
2022/01/26 13:42:14;;;;;;;;;;;5.10;99.90;;;;;;5093636;28;20048;-74
2022/01/26 14:00:23;;;;;;;46.42;18.33;;;5.00;99.90;;;;;;5091942;28;20374;-74
2022/01/26 14:02:55;;;;;;;45.67;21.38;;;5.00;99.90;;;;;;5075931;28;20036;-74
2022/01/26 14:05:21;;;;;;;44.80;19.30;;;5.10;99.90;;;;;;5092632;28;20097;-74
2022/01/26 14:07:46;;;;;;;40.90;19.23;;;5.20;99.90;;;;;;5075729;28;20048;-74
2022/01/26 14:10:12;;;;;;;51.72;24.40;;;5.20;99.90;;;;;;5090885;28;20522;-74
2022/01/26 14:12:44;;;;;;;39.67;18.73;;;5.10;99.90;;;;;;5092162;28;20450;-74
2022/01/26 14:15:10;;;;;;;54.35;24.42;;;5.20;99.90;;;;;;5074065;28;20031;-74
2022/01/26 14:17:59;;;;;;;51.70;21.17;;;5.20;99.90;;;;;;5091340;28;20036;-74
2022/01/26 14:20:45;;;;;;;57.03;25.17;;;5.10;99.90;;;;;;5074703;28;20041;-75
2022/01/26 14:23:43;;;;;;;49.45;21.27;;;5.00;99.90;;;;;;5075259;28;20040;-74
2022/01/26 14:26:05;;;;;;;49.63;21.88;;;5.00;99.90;;;;;;5091926;28;20040;-75
2022/01/26 14:28:34;;;;;;;50.38;20.98;;;5.20;99.90;;;;;;5091331;28;20040;-74
2022/01/26 14:33:53;;;;;;;49.15;21.70;;;5.30;99.90;;;;;;5091253;28;20047;-75
2022/01/26 16:18:02;;;;;;;49.75;21.15;;;5.50;99.90;;;;;;5081328;28;20036;-74
2022/01/26 17:12:42;;;;;;;41.50;16.75;;;5.70;99.90;;;;;;5079523;28;20036;-74
2022/01/26 17:24:18;;;;;;;44.45;20.52;;;5.90;99.90;;;;;;5081682;28;20063;-74
2022/01/26 17:55:17;;;;;;;35.47;15.43;;;5.90;99.90;;;;;;5076673;28;20500;-75
2022/01/26 18:05:18;;;;;;;42.55;19.38;;;5.90;99.90;;;;;;5082396;28;20083;-75
2022/01/26 18:49:38;;;;;;;39.28;21.27;;;6.00;99.90;;;;;;5090802;28;20051;-74
2022/01/26 18:52:05;;;;;;;38.33;15.40;;;5.90;99.90;;;;;;5091634;28;20040;-74
2022/01/26 18:54:37;;;;;;;38.03;17.23;;;6.00;99.90;;;;;;5074028;28;20062;-74
2022/01/26 18:57:08;;;;;;;36.50;18.35;;;6.00;99.90;;;;;;5089821;28;20072;-75
2022/01/26 18:59:34;;;;;;;31.85;15.10;;;5.90;99.90;;;;;;5070087;28;20043;-75
2022/01/26 19:02:00;;;;;;;36.42;18.58;;;6.10;99.90;;;;;;5071354;28;20044;-75
2022/01/26 19:04:36;;;;;;;30.48;13.35;;;6.00;99.90;;;;;;5066852;28;20040;-75
2022/01/26 19:07:03;;;;;;;31.58;14.98;;;6.10;99.90;;;;;;5075927;28;20039;-75
2022/01/26 19:09:32;;;;;;;35.00;16.17;;;6.20;99.90;;;;;;5090169;28;20082;-75
2022/01/26 19:12:00;;;;;;;35.45;16.63;;;6.00;99.90;;;;;;5075584;28;20424;-75
2022/01/26 19:14:32;;;;;;;32.28;16.00;;;6.00;99.90;;;;;;5081072;28;20068;-75
2022/01/26 19:17:20;;;;;;;33.95;17.23;;;6.20;99.90;;;;;;5063535;28;20037;-75
2022/01/26 19:20:01;;;;;;;32.85;16.33;;;6.10;99.90;;;;;;5058464;28;20448;-75
2022/01/26 19:25:19;;;;;;;30.67;15.48;;;6.00;99.90;;;;;;5049122;28;20110;-75
2022/01/26 19:44:03;;;;;;;27.48;15.07;;;6.20;99.90;;;;;;5071528;28;20052;-75
2022/01/26 19:47:00;;;;;;;33.70;17.85;;;6.20;99.90;;;;;;5070603;28;20177;-76